Time;durP1;ratioP1;P1;durP2;ratioP2;P2;SDS_P1;SDS_P2;PMS_P1;PMS_P2;Temp;Humidity;BMP_temperature;BMP_pressure;BME280_temperature;BME280_humidity;BME280_pressure;Samples;Min_cycle;Max_cycle;Signal;HPM_P1;HPM_P2
2023/08/30 00:01:05;;;;;;;;;9.00;9.00;;;;;;;;5019199;28;45576;-77
2023/08/30 00:03:30;;;;;;;;;7.67;7.67;;;;;;;;5016037;28;47371;-78
2023/08/30 00:05:55;;;;;;;;;8.00;8.00;;;;;;;;5018606;28;45264;-78
2023/08/30 00:08:21;;;;;;;;;11.00;10.00;;;;;;;;5012632;28;45627;-77
2023/08/30 00:10:47;;;;;;;;;7.33;7.00;;;;;;;;5017558;28;45350;-77
2023/08/30 00:13:12;;;;;;;;;9.00;7.33;;;;;;;;5015160;28;47110;-78
2023/08/30 00:15:37;;;;;;;;;8.67;8.33;;;;;;;;5018361;28;45350;-77
2023/08/30 00:18:03;;;;;;;;;12.67;9.00;;;;;;;;5011445;28;45454;-78
2023/08/30 00:20:29;;;;;;;;;10.00;8.00;;;;;;;;5021454;28;45518;-78
2023/08/30 00:22:54;;;;;;;;;8.67;8.67;;;;;;;;5011692;28;45250;-78
2023/08/30 00:25:19;;;;;;;;;6.00;6.00;;;;;;;;5013557;28;45522;-78
2023/08/30 00:27:44;;;;;;;;;12.33;9.00;;;;;;;;5015204;28;45324;-78
2023/08/30 00:30:10;;;;;;;;;14.00;12.00;;;;;;;;5015124;28;45565;-78
2023/08/30 00:32:35;;;;;;;;;13.33;11.00;;;;;;;;5014270;28;45411;-77
2023/08/30 00:35:00;;;;;;;;;9.67;9.67;;;;;;;;5015873;28;45348;-77
2023/08/30 00:37:26;;;;;;;;;11.00;8.67;;;;;;;;5015775;28;45550;-77
2023/08/30 00:39:51;;;;;;;;;8.00;7.00;;;;;;;;5016820;28;45822;-77
2023/08/30 00:42:16;;;;;;;;;7.00;6.67;;;;;;;;5016658;28;45205;-78
2023/08/30 00:44:41;;;;;;;;;9.33;7.67;;;;;;;;5017644;28;45228;-77
2023/08/30 00:47:07;;;;;;;;;7.33;6.33;;;;;;;;5017000;28;45636;-77
2023/08/30 00:49:32;;;;;;;;;7.00;5.67;;;;;;;;5015419;28;45935;-77
2023/08/30 00:51:58;;;;;;;;;8.00;8.00;;;;;;;;5016789;28;45541;-77
2023/08/30 00:54:23;;;;;;;;;6.33;6.33;;;;;;;;5011416;28;45440;-77
2023/08/30 00:56:50;;;;;;;;;9.00;7.67;;;;;;;;5018089;28;45205;-77
2023/08/30 00:59:15;;;;;;;;;8.00;8.00;;;;;;;;5010091;28;45206;-77
2023/08/30 01:01:41;;;;;;;;;7.33;5.00;;;;;;;;5019210;28;45493;-77
2023/08/30 01:04:06;;;;;;;;;5.33;5.33;;;;;;;;5015405;28;45554;-77
2023/08/30 01:06:31;;;;;;;;;7.00;7.00;;;;;;;;5022384;28;45443;-77
2023/08/30 01:08:57;;;;;;;;;12.00;7.67;;;;;;;;5015964;28;45417;-77
2023/08/30 01:11:29;;;;;;;;;7.00;5.67;;;;;;;;5022282;28;45307;-76
2023/08/30 01:14:07;;;;;;;;;7.00;6.00;;;;;;;;5011686;28;45258;-76
2023/08/30 01:16:33;;;;;;;;;5.67;5.67;;;;;;;;5018531;28;45641;-76
2023/08/30 01:19:02;;;;;;;;;7.00;7.00;;;;;;;;5018022;28;45863;-76
2023/08/30 01:22:06;;;;;;;;;7.00;6.00;;;;;;;;5021078;28;47072;-76
2023/08/30 01:24:44;;;;;;;;;5.00;5.00;;;;;;;;4979994;28;45818;-76
2023/08/30 01:27:10;;;;;;;;;7.33;6.00;;;;;;;;4982000;28;45413;-76
2023/08/30 01:29:40;;;;;;;;;7.00;4.67;;;;;;;;5003885;28;45433;-75
2023/08/30 01:32:07;;;;;;;;;7.67;6.00;;;;;;;;5019827;28;46644;-75
2023/08/30 01:34:34;;;;;;;;;7.00;7.00;;;;;;;;5019836;28;45302;-76
2023/08/30 01:36:59;;;;;;;;;7.00;7.00;;;;;;;;5018979;28;45446;-75
2023/08/30 01:39:25;;;;;;;;;6.67;6.67;;;;;;;;5018354;28;45377;-77
2023/08/30 01:41:58;;;;;;;;;6.67;6.00;;;;;;;;5018768;28;46746;-75
2023/08/30 01:44:25;;;;;;;;;10.00;7.67;;;;;;;;5018968;28;45616;-76
2023/08/30 01:46:50;;;;;;;;;6.67;6.67;;;;;;;;5018014;28;45439;-77
2023/08/30 01:49:15;;;;;;;;;5.67;5.67;;;;;;;;5019705;28;45455;-77
2023/08/30 01:51:41;;;;;;;;;7.33;5.67;;;;;;;;5018385;28;47632;-79
2023/08/30 01:54:07;;;;;;;;;5.67;5.00;;;;;;;;5012710;28;45470;-76
2023/08/30 01:56:32;;;;;;;;;8.67;4.33;;;;;;;;5019831;28;45385;-76
2023/08/30 01:58:58;;;;;;;;;6.00;5.00;;;;;;;;5018828;28;46054;-76
2023/08/30 02:01:23;;;;;;;;;5.00;5.00;;;;;;;;5019659;28;47030;-76
2023/08/30 02:03:48;;;;;;;;;8.33;7.67;;;;;;;;5009273;28;45443;-78
2023/08/30 02:06:22;;;;;;;;;6.33;5.33;;;;;;;;5012981;28;45330;-77
2023/08/30 02:08:47;;;;;;;;;6.00;3.00;;;;;;;;5014227;28;45361;-76
2023/08/30 02:11:19;;;;;;;;;4.67;4.67;;;;;;;;5021383;28;46561;-76
2023/08/30 02:13:44;;;;;;;;;5.00;5.00;;;;;;;;5016679;28;45599;-78
2023/08/30 02:16:12;;;;;;;;;4.00;4.00;;;;;;;;5020228;28;45410;-76
2023/08/30 02:18:38;;;;;;;;;5.67;5.33;;;;;;;;5016464;28;46541;-77
2023/08/30 02:21:03;;;;;;;;;4.33;4.33;;;;;;;;5027800;28;45355;-77
2023/08/30 02:23:28;;;;;;;;;5.67;4.67;;;;;;;;5016088;28;45338;-77
2023/08/30 02:25:54;;;;;;;;;5.00;5.00;;;;;;;;5018041;28;45404;-78
2023/08/30 02:28:19;;;;;;;;;3.33;3.33;;;;;;;;5010896;28;45543;-77
2023/08/30 02:30:44;;;;;;;;;5.33;4.00;;;;;;;;5009082;28;46967;-77
2023/08/30 02:33:11;;;;;;;;;4.67;4.00;;;;;;;;5012263;28;45352;-78
2023/08/30 02:35:36;;;;;;;;;4.33;3.67;;;;;;;;5013542;28;45597;-77
2023/08/30 02:38:04;;;;;;;;;2.33;2.33;;;;;;;;5014694;28;46046;-77
2023/08/30 02:40:30;;;;;;;;;4.00;3.00;;;;;;;;5013494;28;45323;-77
2023/08/30 02:42:55;;;;;;;;;4.00;3.00;;;;;;;;5016493;28;45320;-77
2023/08/30 02:45:20;;;;;;;;;4.00;2.67;;;;;;;;5000912;28;45225;-76
2023/08/30 02:47:45;;;;;;;;;4.67;2.67;;;;;;;;5012408;28;45463;-76
2023/08/30 02:50:11;;;;;;;;;3.67;1.67;;;;;;;;5008203;28;47122;-75
2023/08/30 02:52:36;;;;;;;;;4.00;4.00;;;;;;;;5014129;28;45687;-76
2023/08/30 02:55:01;;;;;;;;;2.00;2.00;;;;;;;;5000749;28;45383;-76
2023/08/30 02:57:26;;;;;;;;;2.00;2.00;;;;;;;;5014017;28;45357;-75
2023/08/30 02:59:52;;;;;;;;;2.33;2.33;;;;;;;;5007807;28;45428;-76
2023/08/30 03:02:17;;;;;;;;;3.33;2.67;;;;;;;;5014203;28;45352;-76
2023/08/30 03:04:42;;;;;;;;;2.67;2.67;;;;;;;;5007493;28;45276;-76
2023/08/30 03:07:08;;;;;;;;;4.33;4.33;;;;;;;;5017004;28;45488;-76
2023/08/30 03:09:33;;;;;;;;;4.00;4.00;;;;;;;;5011526;28;47405;-76
2023/08/30 03:11:58;;;;;;;;;2.67;2.67;;;;;;;;5016415;28;45516;-75
2023/08/30 03:14:23;;;;;;;;;5.33;5.33;;;;;;;;5009097;28;45459;-75
2023/08/30 03:16:48;;;;;;;;;4.67;4.33;;;;;;;;5017814;28;45419;-76
2023/08/30 03:19:14;;;;;;;;;6.33;4.00;;;;;;;;5013582;28;48163;-75
2023/08/30 03:21:39;;;;;;;;;5.33;3.33;;;;;;;;5017414;28;45316;-76
2023/08/30 03:24:04;;;;;;;;;6.67;4.00;;;;;;;;5008941;28;45310;-76
2023/08/30 03:26:29;;;;;;;;;4.33;4.00;;;;;;;;5033370;28;46171;-75
2023/08/30 03:28:54;;;;;;;;;6.67;5.00;;;;;;;;5013855;28;46692;-75
2023/08/30 03:31:20;;;;;;;;;5.67;4.67;;;;;;;;5017715;28;45309;-75
2023/08/30 03:33:46;;;;;;;;;5.67;4.00;;;;;;;;5007534;28;45253;-75
2023/08/30 03:36:12;;;;;;;;;6.00;3.00;;;;;;;;5016631;28;45332;-75
2023/08/30 03:38:38;;;;;;;;;4.00;3.67;;;;;;;;5016651;28;45228;-76
2023/08/30 03:41:03;;;;;;;;;3.00;3.00;;;;;;;;5018111;28;45210;-75
2023/08/30 03:43:29;;;;;;;;;3.00;3.00;;;;;;;;5017622;28;45364;-76
2023/08/30 03:45:54;;;;;;;;;3.67;2.33;;;;;;;;5019502;28;45271;-75
2023/08/30 03:48:19;;;;;;;;;4.00;4.00;;;;;;;;5014128;28;48084;-76
2023/08/30 03:50:44;;;;;;;;;3.33;3.33;;;;;;;;5016843;28;45217;-76
2023/08/30 03:53:10;;;;;;;;;6.33;5.00;;;;;;;;5014421;28;45441;-76
2023/08/30 03:55:35;;;;;;;;;3.00;3.00;;;;;;;;5017672;28;46164;-75
2023/08/30 03:58:00;;;;;;;;;6.00;4.00;;;;;;;;5013687;28;45357;-76
2023/08/30 04:00:25;;;;;;;;;2.67;2.67;;;;;;;;5017940;28;45427;-75
2023/08/30 04:02:50;;;;;;;;;4.33;4.33;;;;;;;;5015475;28;45255;-76
2023/08/30 04:05:15;;;;;;;;;5.33;4.33;;;;;;;;5014944;28;45395;-76
2023/08/30 04:07:41;;;;;;;;;5.33;3.67;;;;;;;;5013482;28;45406;-77
2023/08/30 04:10:07;;;;;;;;;4.67;4.00;;;;;;;;5010713;28;45178;-76
2023/08/30 04:12:33;;;;;;;;;4.00;4.00;;;;;;;;5014305;28;45434;-76
2023/08/30 04:14:58;;;;;;;;;5.33;5.00;;;;;;;;5011746;28;46039;-75
2023/08/30 04:17:23;;;;;;;;;4.33;4.33;;;;;;;;5015518;28;46181;-76
2023/08/30 04:19:51;;;;;;;;;4.00;4.00;;;;;;;;5018949;28;45324;-75
2023/08/30 04:22:16;;;;;;;;;5.00;5.00;;;;;;;;5023868;28;45312;-76
2023/08/30 04:24:41;;;;;;;;;4.67;4.67;;;;;;;;5010730;28;45237;-75
2023/08/30 04:27:06;;;;;;;;;6.00;3.33;;;;;;;;5017482;28;46189;-75
2023/08/30 04:29:32;;;;;;;;;3.67;2.67;;;;;;;;5004368;28;45230;-75
2023/08/30 04:31:57;;;;;;;;;5.67;5.67;;;;;;;;5018664;28;45722;-75
2023/08/30 04:34:22;;;;;;;;;4.67;3.67;;;;;;;;5008593;28;46579;-76
2023/08/30 04:36:48;;;;;;;;;6.33;4.00;;;;;;;;5018552;28;45694;-75
2023/08/30 04:39:13;;;;;;;;;5.00;4.33;;;;;;;;5010630;28;45414;-76
2023/08/30 04:41:38;;;;;;;;;3.00;3.00;;;;;;;;5019697;28;45397;-75
2023/08/30 04:44:04;;;;;;;;;4.33;3.33;;;;;;;;5015038;28;45641;-75
2023/08/30 04:46:29;;;;;;;;;6.67;4.33;;;;;;;;5018009;28;47267;-76
2023/08/30 04:48:54;;;;;;;;;6.67;5.00;;;;;;;;5017134;28;45305;-76
2023/08/30 04:51:19;;;;;;;;;3.33;3.33;;;;;;;;5019313;28;45202;-76
2023/08/30 04:53:45;;;;;;;;;5.33;4.67;;;;;;;;5013536;28;45158;-74
2023/08/30 04:56:11;;;;;;;;;6.67;4.33;;;;;;;;5018603;28;46391;-75
2023/08/30 04:58:36;;;;;;;;;4.33;4.33;;;;;;;;5008225;28;45560;-75
2023/08/30 05:01:02;;;;;;;;;4.67;3.67;;;;;;;;5018419;28;45329;-75
2023/08/30 05:03:27;;;;;;;;;4.00;4.00;;;;;;;;5015353;28;45884;-75
2023/08/30 05:05:52;;;;;;;;;5.00;5.00;;;;;;;;5017055;28;47158;-75
2023/08/30 05:08:18;;;;;;;;;3.00;3.00;;;;;;;;5011299;28;44740;-75
2023/08/30 05:10:43;;;;;;;;;6.00;5.67;;;;;;;;5018314;28;45427;-75
2023/08/30 05:13:08;;;;;;;;;4.67;4.67;;;;;;;;5013585;28;45352;-75
2023/08/30 05:15:33;;;;;;;;;5.33;3.67;;;;;;;;5017149;28;47088;-75
2023/08/30 05:17:58;;;;;;;;;5.00;4.33;;;;;;;;5015533;28;45663;-76
2023/08/30 05:20:24;;;;;;;;;4.00;3.67;;;;;;;;5024370;28;45444;-76
2023/08/30 05:22:49;;;;;;;;;4.00;4.00;;;;;;;;5012951;28;47025;-76
2023/08/30 05:25:14;;;;;;;;;7.33;4.00;;;;;;;;5014265;28;46529;-75
2023/08/30 05:27:39;;;;;;;;;6.33;5.67;;;;;;;;5011563;28;45326;-77
2023/08/30 05:30:05;;;;;;;;;5.00;4.67;;;;;;;;5015384;28;45597;-75
2023/08/30 05:32:31;;;;;;;;;9.33;5.67;;;;;;;;5013177;28;45545;-76
2023/08/30 05:34:56;;;;;;;;;5.00;5.00;;;;;;;;5016536;28;45575;-77
2023/08/30 05:37:21;;;;;;;;;5.33;4.00;;;;;;;;5015697;28;45260;-77
2023/08/30 05:39:46;;;;;;;;;4.67;4.67;;;;;;;;5017742;28;45335;-79
2023/08/30 05:42:12;;;;;;;;;3.67;3.67;;;;;;;;5015579;28;45268;-78
2023/08/30 05:44:38;;;;;;;;;5.67;4.67;;;;;;;;5006055;28;45463;-80
2023/08/30 05:47:03;;;;;;;;;9.00;6.00;;;;;;;;5016413;28;45245;-80
2023/08/30 05:49:28;;;;;;;;;7.00;5.67;;;;;;;;5020358;28;45233;-76
2023/08/30 05:51:54;;;;;;;;;5.00;4.00;;;;;;;;5019485;28;45577;-77
2023/08/30 05:54:19;;;;;;;;;6.33;5.33;;;;;;;;5015241;28;45235;-77
2023/08/30 05:56:44;;;;;;;;;5.33;5.33;;;;;;;;5020873;28;45414;-79
2023/08/30 05:59:09;;;;;;;;;4.00;4.00;;;;;;;;5010038;28;45499;-80
2023/08/30 06:01:35;;;;;;;;;4.67;4.67;;;;;;;;5014859;28;45350;-79
2023/08/30 06:04:00;;;;;;;;;5.00;5.00;;;;;;;;5017869;28;45561;-77
2023/08/30 06:06:27;;;;;;;;;5.33;4.67;;;;;;;;5015041;28;45548;-77
2023/08/30 06:08:52;;;;;;;;;4.67;4.67;;;;;;;;5012931;28;45321;-78
2023/08/30 06:11:17;;;;;;;;;5.00;5.00;;;;;;;;5014696;28;45337;-80
2023/08/30 06:13:42;;;;;;;;;6.00;6.00;;;;;;;;5015316;28;45490;-80
2023/08/30 06:16:08;;;;;;;;;6.00;5.00;;;;;;;;5018689;28;45488;-78
2023/08/30 06:18:33;;;;;;;;;4.00;4.00;;;;;;;;5016690;28;45469;-80
2023/08/30 06:20:58;;;;;;;;;8.00;5.33;;;;;;;;5028135;28;45282;-77
2023/08/30 06:23:23;;;;;;;;;5.67;4.67;;;;;;;;5014401;28;45514;-78
2023/08/30 06:25:55;;;;;;;;;2.67;2.67;;;;;;;;5015577;28;45277;-79
2023/08/30 06:28:20;;;;;;;;;7.33;4.00;;;;;;;;5015809;28;45307;-80
2023/08/30 06:30:46;;;;;;;;;6.00;4.00;;;;;;;;5019216;28;45258;-80
2023/08/30 06:33:11;;;;;;;;;6.00;4.33;;;;;;;;5018818;28;46903;-80
2023/08/30 06:35:38;;;;;;;;;4.67;3.67;;;;;;;;5014055;28;45388;-77
2023/08/30 06:38:04;;;;;;;;;6.33;4.67;;;;;;;;5017910;28;45466;-77
2023/08/30 06:40:29;;;;;;;;;6.00;3.00;;;;;;;;5009776;28;45574;-79
2023/08/30 06:42:54;;;;;;;;;6.00;5.00;;;;;;;;5012900;28;45620;-78
2023/08/30 06:45:20;;;;;;;;;4.33;4.33;;;;;;;;5007773;28;45855;-77
2023/08/30 06:47:45;;;;;;;;;4.00;4.00;;;;;;;;5017457;28;45493;-78
2023/08/30 06:50:10;;;;;;;;;6.33;3.67;;;;;;;;5012868;28;45452;-77
2023/08/30 06:52:36;;;;;;;;;4.33;2.67;;;;;;;;5011207;28;48197;-79
2023/08/30 06:55:02;;;;;;;;;2.33;2.33;;;;;;;;5013798;28;45408;-79
2023/08/30 06:57:27;;;;;;;;;3.67;3.67;;;;;;;;5007213;28;45352;-77
2023/08/30 06:59:52;;;;;;;;;4.00;3.67;;;;;;;;5003346;28;45247;-79
2023/08/30 07:02:17;;;;;;;;;3.00;3.00;;;;;;;;5011081;28;48076;-81
2023/08/30 07:04:42;;;;;;;;;4.67;4.00;;;;;;;;5013569;28;45366;-79
2023/08/30 07:07:08;;;;;;;;;2.33;2.33;;;;;;;;5010908;28;45408;-79
2023/08/30 07:09:33;;;;;;;;;3.00;3.00;;;;;;;;5008776;28;45300;-76
2023/08/30 07:11:59;;;;;;;;;4.33;2.67;;;;;;;;5012054;28;46528;-76
2023/08/30 07:14:24;;;;;;;;;3.00;2.33;;;;;;;;5015760;28;45438;-79
2023/08/30 07:16:50;;;;;;;;;5.67;3.67;;;;;;;;5020363;28;47227;-80
2023/08/30 07:19:15;;;;;;;;;4.33;3.67;;;;;;;;5009967;28;45563;-79
2023/08/30 07:21:41;;;;;;;;;3.33;1.00;;;;;;;;5018835;28;45311;-74
2023/08/30 07:24:07;;;;;;;;;2.67;2.67;;;;;;;;5009644;28;45539;-75
2023/08/30 07:26:32;;;;;;;;;3.67;2.67;;;;;;;;5019045;28;45565;-75
2023/08/30 07:28:57;;;;;;;;;3.67;2.00;;;;;;;;5015098;28;45398;-75
2023/08/30 07:31:22;;;;;;;;;1.67;1.67;;;;;;;;5014745;28;47841;-74
2023/08/30 07:33:47;;;;;;;;;2.67;2.67;;;;;;;;5015258;28;45539;-74
2023/08/30 07:36:13;;;;;;;;;4.00;4.00;;;;;;;;5016366;28;45669;-75
2023/08/30 07:38:38;;;;;;;;;2.67;1.67;;;;;;;;5015576;28;45772;-74
2023/08/30 07:41:03;;;;;;;;;4.00;3.00;;;;;;;;5016238;28;46362;-75
2023/08/30 07:43:28;;;;;;;;;3.00;3.00;;;;;;;;5017152;28;45191;-74
2023/08/30 07:45:54;;;;;;;;;2.33;2.33;;;;;;;;5019571;28;45313;-74
2023/08/30 07:48:19;;;;;;;;;3.67;2.67;;;;;;;;5015498;28;45525;-75
2023/08/30 07:50:44;;;;;;;;;3.67;3.00;;;;;;;;5007647;28;46233;-75
2023/08/30 07:53:12;;;;;;;;;3.00;1.33;;;;;;;;5011729;28;45344;-75
2023/08/30 07:55:37;;;;;;;;;4.00;3.00;;;;;;;;5017874;28;45322;-75
2023/08/30 07:58:03;;;;;;;;;4.33;3.67;;;;;;;;5013423;28;45392;-74
2023/08/30 08:00:28;;;;;;;;;3.00;3.00;;;;;;;;5016487;28;45253;-75
2023/08/30 08:02:53;;;;;;;;;5.00;3.33;;;;;;;;5015656;28;45193;-74
2023/08/30 08:05:18;;;;;;;;;2.00;2.00;;;;;;;;5016569;28;45288;-75
2023/08/30 08:07:44;;;;;;;;;8.33;4.00;;;;;;;;5013888;28;45285;-75
2023/08/30 08:10:09;;;;;;;;;3.33;1.67;;;;;;;;5010075;28;45223;-76
2023/08/30 08:12:35;;;;;;;;;5.00;4.00;;;;;;;;5014110;28;45468;-74
2023/08/30 08:15:00;;;;;;;;;2.67;2.00;;;;;;;;5010379;28;44774;-75
2023/08/30 08:17:25;;;;;;;;;3.00;2.33;;;;;;;;5013921;28;45870;-75
2023/08/30 08:19:50;;;;;;;;;4.33;2.67;;;;;;;;5015667;28;46623;-75
2023/08/30 08:22:16;;;;;;;;;2.67;2.67;;;;;;;;5018476;28;45450;-75
2023/08/30 08:24:41;;;;;;;;;2.67;2.67;;;;;;;;5003160;28;45284;-75
2023/08/30 08:27:06;;;;;;;;;1.67;1.67;;;;;;;;5016816;28;45167;-75
2023/08/30 08:29:31;;;;;;;;;3.00;3.00;;;;;;;;5005061;28;46062;-74
2023/08/30 08:31:57;;;;;;;;;3.33;2.67;;;;;;;;5017190;28;45241;-74
2023/08/30 08:34:22;;;;;;;;;3.67;3.67;;;;;;;;5013267;28;45398;-74
2023/08/30 08:36:47;;;;;;;;;3.67;2.67;;;;;;;;5018091;28;45253;-75
2023/08/30 08:39:14;;;;;;;;;3.00;2.00;;;;;;;;5007169;28;45396;-74
2023/08/30 08:41:42;;;;;;;;;3.67;2.67;;;;;;;;5015613;28;45312;-74
2023/08/30 08:44:08;;;;;;;;;5.00;2.00;;;;;;;;5009034;28;45379;-74
2023/08/30 08:46:38;;;;;;;;;3.00;3.00;;;;;;;;5006244;28;45490;-75
2023/08/30 08:49:16;;;;;;;;;2.00;2.00;;;;;;;;5015878;28;47684;-74
2023/08/30 08:51:42;;;;;;;;;3.33;3.00;;;;;;;;5018554;28;45343;-75
2023/08/30 08:54:09;;;;;;;;;2.67;2.67;;;;;;;;5013954;28;45228;-74
2023/08/30 08:56:34;;;;;;;;;3.33;1.67;;;;;;;;5017953;28;45533;-75
2023/08/30 08:59:00;;;;;;;;;2.33;1.67;;;;;;;;5007706;28;46061;-75
2023/08/30 09:01:26;;;;;;;;;1.67;1.00;;;;;;;;5018310;28;45216;-74
2023/08/30 09:03:51;;;;;;;;;2.67;2.67;;;;;;;;5011564;28;45389;-74
2023/08/30 09:06:17;;;;;;;;;3.00;2.33;;;;;;;;5006877;28;45387;-74
2023/08/30 09:08:42;;;;;;;;;3.33;3.00;;;;;;;;5010197;28;46128;-76
2023/08/30 09:11:08;;;;;;;;;4.00;3.00;;;;;;;;5013845;28;45214;-76
2023/08/30 09:13:33;;;;;;;;;3.50;3.00;;;;;;;;5015834;28;45427;-75
2023/08/30 09:15:59;;;;;;;;;4.00;3.00;;;;;;;;5014868;28;45431;-76
2023/08/30 09:18:27;;;;;;;;;6.00;2.00;;;;;;;;5013818;28;46793;-73
2023/08/30 09:20:53;;;;;;;;;2.50;1.25;;;;;;;;5024217;28;45367;-75
2023/08/30 09:23:21;;;;;;;;;2.50;2.50;;;;;;;;5015404;28;45408;-76
2023/08/30 09:25:47;;;;;;;;;2.50;1.75;;;;;;;;5017932;28;45513;-75
2023/08/30 09:28:12;;;;;;;;;2.50;2.50;;;;;;;;5017095;28;45413;-77
2023/08/30 09:30:39;;;;;;;;;1.25;1.25;;;;;;;;5011301;28;45817;-75
2023/08/30 09:33:04;;;;;;;;;6.75;1.00;;;;;;;;5018256;28;45497;-74
2023/08/30 09:35:29;;;;;;;;;3.00;1.00;;;;;;;;5011875;28;45320;-75
2023/08/30 09:37:54;;;;;;;;;1.75;1.50;;;;;;;;5016325;28;45315;-75
2023/08/30 09:40:20;;;;;;;;;5.75;3.75;;;;;;;;5014968;28;45245;-74
2023/08/30 09:42:45;;;;;;;;;1.00;1.00;;;;;;;;5013074;28;45705;-73
2023/08/30 09:45:21;;;;;;;;;6.75;2.50;;;;;;;;5009835;28;45821;-76
2023/08/30 09:47:48;;;;;;;;;1.50;1.50;;;;;;;;5007340;28;46627;-74
2023/08/30 09:50:15;;;;;;;;;4.50;3.25;;;;;;;;5011315;28;45302;-76
2023/08/30 09:52:40;;;;;;;;;2.00;1.00;;;;;;;;5012393;28;45325;-75
2023/08/30 09:55:05;;;;;;;;;3.00;2.00;;;;;;;;5016738;28;45217;-75
2023/08/30 09:57:31;;;;;;;;;7.00;3.00;;;;;;;;5012797;28;45749;-76
2023/08/30 09:59:56;;;;;;;;;3.50;3.50;;;;;;;;5010634;28;45228;-76
2023/08/30 10:02:21;;;;;;;;;4.50;1.25;;;;;;;;5010784;28;45620;-76
2023/08/30 10:04:47;;;;;;;;;4.50;2.00;;;;;;;;5016225;28;46997;-76
2023/08/30 10:07:13;;;;;;;;;5.75;2.75;;;;;;;;5016697;28;48029;-75
2023/08/30 10:09:41;;;;;;;;;2.50;2.00;;;;;;;;5010463;28;45277;-76
2023/08/30 10:12:07;;;;;;;;;2.00;0.00;;;;;;;;5026501;28;45732;-76
2023/08/30 10:14:32;;;;;;;;;4.00;4.00;;;;;;;;5012185;28;45513;-76
2023/08/30 10:17:05;;;;;;;;;0.00;0.00;;;;;;;;5016736;28;46126;-76
2023/08/30 10:19:31;;;;;;;;;2.00;2.00;;;;;;;;5014395;28;45956;-76
2023/08/30 10:22:03;;;;;;;;;2.00;2.00;;;;;;;;5023388;28;45404;-75
2023/08/30 10:24:29;;;;;;;;;1.00;1.00;;;;;;;;5010929;28;45364;-76
2023/08/30 10:26:56;;;;;;;;;3.00;2.25;;;;;;;;5014994;28;46206;-76
2023/08/30 10:29:23;;;;;;;;;3.00;2.00;;;;;;;;5011137;28;45372;-76
2023/08/30 10:31:48;;;;;;;;;2.00;2.00;;;;;;;;5015331;28;45171;-76
2023/08/30 10:34:15;;;;;;;;;1.00;1.00;;;;;;;;5012324;28;45174;-75
2023/08/30 10:36:41;;;;;;;;;3.60;1.80;;;;;;;;5014822;28;45163;-76
2023/08/30 10:39:11;;;;;;;;;6.40;3.00;;;;;;;;5007635;28;45240;-74
2023/08/30 10:41:36;;;;;;;;;3.50;3.00;;;;;;;;5019803;28;45419;-75
2023/08/30 10:44:01;;;;;;;;;2.25;1.00;;;;;;;;5008785;28;45375;-76
2023/08/30 10:46:30;;;;;;;;;2.75;1.75;;;;;;;;5011880;28;46846;-76
2023/08/30 10:48:57;;;;;;;;;2.80;2.00;;;;;;;;5017358;28;45387;-75
2023/08/30 10:51:36;;;;;;;;;3.25;1.00;;;;;;;;5017650;28;45355;-76
2023/08/30 10:54:09;;;;;;;;;3.00;3.00;;;;;;;;5008516;28;45336;-76
2023/08/30 10:56:35;;;;;;;;;2.25;2.00;;;;;;;;5011248;28;46655;-76
2023/08/30 10:59:02;;;;;;;;;3.00;2.00;;;;;;;;5009913;28;45381;-75
2023/08/30 11:01:27;;;;;;;;;3.00;2.00;;;;;;;;5015790;28;45415;-76
2023/08/30 11:03:52;;;;;;;;;3.00;2.50;;;;;;;;5012694;28;45395;-76
2023/08/30 11:06:17;;;;;;;;;3.00;3.00;;;;;;;;5019951;28;45909;-77
2023/08/30 11:08:43;;;;;;;;;6.00;3.25;;;;;;;;5011713;28;45403;-77
2023/08/30 11:11:10;;;;;;;;;3.00;3.00;;;;;;;;5013103;28;45476;-75
2023/08/30 11:13:35;;;;;;;;;3.00;3.00;;;;;;;;5010839;28;45563;-76
2023/08/30 11:16:03;;;;;;;;;2.25;1.75;;;;;;;;5014516;28;45594;-77
2023/08/30 11:18:28;;;;;;;;;4.20;2.60;;;;;;;;5016083;28;45424;-76
2023/08/30 11:20:58;;;;;;;;;3.25;2.00;;;;;;;;5026925;28;45240;-79
2023/08/30 11:23:24;;;;;;;;;4.00;2.40;;;;;;;;5017373;28;45028;-79
2023/08/30 11:25:52;;;;;;;;;4.00;3.25;;;;;;;;5018178;28;46903;-76
2023/08/30 11:28:26;;;;;;;;;2.00;2.00;;;;;;;;5015605;28;45614;-77
2023/08/30 11:30:55;;;;;;;;;5.60;3.20;;;;;;;;5017559;28;45399;-75
2023/08/30 11:33:23;;;;;;;;;1.80;0.80;;;;;;;;5011680;28;45433;-77
2023/08/30 11:35:49;;;;;;;;;3.00;2.60;;;;;;;;5014254;28;45369;-76
2023/08/30 11:38:14;;;;;;;;;3.00;2.00;;;;;;;;5016354;28;45407;-76
2023/08/30 11:40:40;;;;;;;;;2.75;2.00;;;;;;;;5020888;28;45446;-77
2023/08/30 11:43:06;;;;;;;;;2.75;1.25;;;;;;;;5016759;28;46714;-79
2023/08/30 11:45:34;;;;;;;;;3.25;1.50;;;;;;;;5019073;28;47401;-80
2023/08/30 11:48:00;;;;;;;;;1.40;1.40;;;;;;;;5011776;28;45396;-76
2023/08/30 11:50:25;;;;;;;;;2.25;2.25;;;;;;;;5007968;28;45489;-77
2023/08/30 11:52:51;;;;;;;;;4.00;3.00;;;;;;;;5000633;28;46405;-78
2023/08/30 11:55:16;;;;;;;;;4.75;3.25;;;;;;;;5006690;28;45477;-79
2023/08/30 11:57:48;;;;;;;;;3.00;3.00;;;;;;;;5016836;28;45761;-77
2023/08/30 12:00:13;;;;;;;;;4.40;1.80;;;;;;;;5016765;28;45651;-78
2023/08/30 12:02:41;;;;;;;;;2.25;2.25;;;;;;;;5014318;28;45365;-78
2023/08/30 12:05:10;;;;;;;;;4.80;2.60;;;;;;;;5015710;28;45303;-77
2023/08/30 12:07:36;;;;;;;;;3.80;3.80;;;;;;;;5014680;28;45359;-78
2023/08/30 12:10:05;;;;;;;;;4.00;4.00;;;;;;;;5016566;28;45360;-78
2023/08/30 12:12:30;;;;;;;;;4.00;2.80;;;;;;;;5015138;28;45300;-77
2023/08/30 12:14:56;;;;;;;;;6.00;3.00;;;;;;;;5010542;28;45261;-78
2023/08/30 12:17:21;;;;;;;;;2.00;1.25;;;;;;;;5016530;28;45380;-77
2023/08/30 12:19:54;;;;;;;;;3.75;3.00;;;;;;;;5009444;28;45339;-78
2023/08/30 12:22:19;;;;;;;;;3.60;3.60;;;;;;;;5026413;28;45378;-78
2023/08/30 12:24:45;;;;;;;;;2.75;2.50;;;;;;;;5013047;28;45446;-77
2023/08/30 12:27:11;;;;;;;;;4.50;3.00;;;;;;;;5017020;28;45451;-79
2023/08/30 12:29:36;;;;;;;;;3.50;3.50;;;;;;;;5015914;28;45410;-77
2023/08/30 12:32:01;;;;;;;;;3.25;3.25;;;;;;;;5016860;28;45340;-77
2023/08/30 12:34:26;;;;;;;;;4.00;4.00;;;;;;;;5006141;28;45369;-77
2023/08/30 12:36:52;;;;;;;;;5.00;3.00;;;;;;;;5016866;28;45256;-77
2023/08/30 12:39:17;;;;;;;;;4.75;4.75;;;;;;;;5009016;28;45341;-75
2023/08/30 12:41:42;;;;;;;;;7.00;4.25;;;;;;;;5018521;28;45380;-77
2023/08/30 12:44:08;;;;;;;;;4.00;3.50;;;;;;;;5007965;28;46387;-76
2023/08/30 12:46:33;;;;;;;;;2.00;2.00;;;;;;;;5018502;28;45361;-76
2023/08/30 12:48:58;;;;;;;;;4.00;4.00;;;;;;;;5014415;28;45078;-79
2023/08/30 12:51:23;;;;;;;;;4.00;4.00;;;;;;;;5018552;28;45491;-77
2023/08/30 12:53:49;;;;;;;;;3.00;2.75;;;;;;;;5012755;28;45467;-78
2023/08/30 12:56:14;;;;;;;;;3.25;3.00;;;;;;;;5018042;28;45358;-76
2023/08/30 12:58:39;;;;;;;;;2.00;1.50;;;;;;;;5020257;28;45556;-76
2023/08/30 13:01:04;;;;;;;;;3.00;3.00;;;;;;;;5020677;28;45543;-75
2023/08/30 13:03:29;;;;;;;;;1.00;1.00;;;;;;;;5014841;28;45404;-76
2023/08/30 13:05:55;;;;;;;;;3.00;3.00;;;;;;;;5016396;28;45847;-77
2023/08/30 13:08:20;;;;;;;;;5.75;3.25;;;;;;;;5013529;28;45496;-76
2023/08/30 13:10:45;;;;;;;;;3.50;2.75;;;;;;;;5021240;28;45533;-77
2023/08/30 13:13:10;;;;;;;;;4.25;4.25;;;;;;;;5014032;28;46560;-76
2023/08/30 13:15:35;;;;;;;;;3.00;3.00;;;;;;;;5019990;28;45348;-77
2023/08/30 13:18:01;;;;;;;;;3.75;3.75;;;;;;;;5014338;28;45210;-77
2023/08/30 13:20:26;;;;;;;;;4.00;4.00;;;;;;;;5019631;28;45321;-77
2023/08/30 13:22:51;;;;;;;;;3.25;3.25;;;;;;;;5013311;28;46080;-76
2023/08/30 13:25:16;;;;;;;;;2.75;2.75;;;;;;;;5018608;28;45260;-78
2023/08/30 13:27:41;;;;;;;;;6.50;3.00;;;;;;;;5015603;28;45395;-78
2023/08/30 13:30:07;;;;;;;;;3.25;3.00;;;;;;;;5020239;28;45999;-78
2023/08/30 13:32:33;;;;;;;;;2.00;2.00;;;;;;;;5012188;28;46194;-78
2023/08/30 13:34:59;;;;;;;;;2.75;1.25;;;;;;;;5004187;28;45405;-78
2023/08/30 13:37:24;;;;;;;;;3.00;2.00;;;;;;;;5005165;28;45325;-78
2023/08/30 13:39:50;;;;;;;;;0.25;0.25;;;;;;;;5014370;28;45280;-79
2023/08/30 13:42:15;;;;;;;;;2.75;2.75;;;;;;;;5013022;28;45483;-79
2023/08/30 13:44:42;;;;;;;;;4.25;1.25;;;;;;;;5013519;28;45595;-78
2023/08/30 13:47:07;;;;;;;;;3.00;2.00;;;;;;;;5019102;28;45563;-80
2023/08/30 13:49:32;;;;;;;;;0.75;0.75;;;;;;;;5011601;28;45321;-79
2023/08/30 13:51:58;;;;;;;;;2.00;2.00;;;;;;;;5013827;28;45758;-78
2023/08/30 13:54:24;;;;;;;;;4.25;2.00;;;;;;;;5017197;28;45983;-80
2023/08/30 13:56:49;;;;;;;;;3.00;2.00;;;;;;;;5015370;28;45218;-77
2023/08/30 13:59:15;;;;;;;;;3.75;2.25;;;;;;;;5013276;28;45457;-78
2023/08/30 14:01:40;;;;;;;;;4.00;3.00;;;;;;;;5017750;28;46011;-81
2023/08/30 14:04:05;;;;;;;;;3.00;3.00;;;;;;;;5011707;28;45324;-79
2023/08/30 14:06:32;;;;;;;;;3.00;2.25;;;;;;;;5020889;28;45399;-80
2023/08/30 14:08:57;;;;;;;;;3.00;2.00;;;;;;;;5014417;28;45289;-79
2023/08/30 14:11:24;;;;;;;;;10.00;5.25;;;;;;;;5020827;28;45455;-79
2023/08/30 14:13:49;;;;;;;;;4.00;2.40;;;;;;;;5014372;28;45470;-78
2023/08/30 14:16:14;;;;;;;;;1.25;1.00;;;;;;;;5016245;28;45326;-77
2023/08/30 14:18:40;;;;;;;;;2.00;2.00;;;;;;;;5016300;28;45256;-77
2023/08/30 14:21:05;;;;;;;;;2.00;2.00;;;;;;;;5026509;28;45530;-80
2023/08/30 14:23:30;;;;;;;;;3.00;3.00;;;;;;;;5016501;28;45344;-80
2023/08/30 14:26:09;;;;;;;;;1.50;1.50;;;;;;;;5019809;28;45427;-79
2023/08/30 14:28:35;;;;;;;;;2.25;2.25;;;;;;;;5010914;28;45352;-79
2023/08/30 14:31:01;;;;;;;;;1.75;1.75;;;;;;;;5013966;28;45550;-78
2023/08/30 14:33:26;;;;;;;;;2.25;2.00;;;;;;;;5022331;28;45265;-79
2023/08/30 14:35:51;;;;;;;;;6.00;3.00;;;;;;;;5024503;28;45233;-79